createdAt,value
2023-05-19T00:00:21.450Z,96502.19
2023-05-19T00:01:24.896Z,96502.00
2023-05-19T00:02:27.234Z,96501.16
2023-05-19T00:03:30.556Z,96502.75
2023-05-19T00:04:33.893Z,96497.88
2023-05-19T00:05:40.725Z,96501.91
2023-05-19T00:06:44.709Z,96505.06
2023-05-19T00:07:47.844Z,96500.72
2023-05-19T00:08:50.197Z,96497.28
2023-05-19T00:09:52.223Z,96491.31
2023-05-19T00:10:53.999Z,96499.34
2023-05-19T00:11:56.804Z,96491.94
2023-05-19T00:12:58.800Z,96491.03
2023-05-19T00:14:00.349Z,96495.81
2023-05-19T00:15:02.104Z,96491.75
2023-05-19T00:16:03.981Z,96488.25
2023-05-19T00:17:05.961Z,96492.78
2023-05-19T00:18:08.880Z,96495.06
2023-05-19T00:19:10.878Z,96496.28
2023-05-19T00:20:12.946Z,96485.41
2023-05-19T00:21:15.233Z,96485.31
2023-05-19T00:22:16.800Z,96484.69
2023-05-19T00:23:18.451Z,96484.69
2023-05-19T00:24:20.000Z,96485.69
2023-05-19T00:25:21.619Z,96481.38
2023-05-19T00:26:23.855Z,96483.41
2023-05-19T00:27:31.012Z,96482.22
2023-05-19T00:28:32.542Z,96483.22
2023-05-19T00:29:34.559Z,96483.59
2023-05-19T00:30:36.135Z,96484.81
2023-05-19T00:31:37.711Z,96480.28
2023-05-19T00:32:39.338Z,96490.34
2023-05-19T00:33:41.355Z,96488.03
2023-05-19T00:34:43.013Z,96482.22
2023-05-19T00:35:44.504Z,96483.25
2023-05-19T00:36:46.256Z,96482.81
2023-05-19T00:37:48.917Z,96489.16
2023-05-19T00:38:51.583Z,96482.34
2023-05-19T00:39:53.455Z,96481.34
2023-05-19T00:40:54.965Z,96493.22
2023-05-19T00:41:56.719Z,96489.69
2023-05-19T00:42:58.290Z,96483.72
2023-05-19T00:43:59.908Z,96483.44
2023-05-19T00:45:01.549Z,96482.44
2023-05-19T00:46:04.003Z,96485.50
2023-05-19T00:47:05.770Z,96487.69
2023-05-19T00:48:07.440Z,96482.06
2023-05-19T00:49:08.989Z,96487.78
2023-05-19T00:50:10.674Z,96484.47
2023-05-19T00:51:16.696Z,96484.69
2023-05-19T00:52:18.628Z,96492.03
2023-05-19T00:53:20.783Z,96488.88
2023-05-19T00:54:22.833Z,96483.72
2023-05-19T00:55:28.229Z,96485.59
2023-05-19T00:56:29.979Z,96484.91
2023-05-19T00:57:31.835Z,96475.47
2023-05-19T00:58:33.986Z,96477.47
2023-05-19T00:59:35.970Z,96469.66
2023-05-19T01:00:39.759Z,96469.84
2023-05-19T01:01:41.469Z,96467.91
2023-05-19T01:02:43.696Z,96464.22
2023-05-19T01:03:47.136Z,96475.28
2023-05-19T01:04:50.974Z,96473.59
2023-05-19T01:05:53.666Z,96469.28
2023-05-19T01:06:56.436Z,96470.31
2023-05-19T01:07:58.002Z,96462.94
2023-05-19T01:08:59.800Z,96466.59
2023-05-19T01:10:01.557Z,96469.94
2023-05-19T01:11:04.019Z,96461.56
2023-05-19T01:12:06.337Z,96467.75
2023-05-19T01:13:08.505Z,96460.38
2023-05-19T01:14:10.159Z,96460.00
2023-05-19T01:15:14.129Z,96460.84
2023-05-19T01:16:24.666Z,96466.31
2023-05-19T01:17:49.659Z,96461.09
2023-05-19T01:18:56.162Z,96470.75
2023-05-19T01:20:22.738Z,96468.09
2023-05-19T01:21:39.048Z,96470.19
2023-05-19T01:22:46.445Z,96475.38
2023-05-19T01:24:27.326Z,96476.81
2023-05-19T01:25:47.103Z,96478.31
2023-05-19T01:27:01.704Z,96479.16
2023-05-19T01:28:12.515Z,96480.34
2023-05-19T01:29:24.344Z,96479.50
2023-05-19T01:30:30.282Z,96481.72
2023-05-19T01:31:33.643Z,96484.38
2023-05-19T01:32:36.503Z,96486.22
2023-05-19T01:33:41.404Z,96487.88
2023-05-19T01:34:45.124Z,96482.09
2023-05-19T01:35:49.030Z,96484.09
2023-05-19T01:36:51.311Z,96484.28
2023-05-19T01:37:58.987Z,96481.63
2023-05-19T01:39:02.526Z,96483.81
2023-05-19T01:40:07.948Z,96481.63
2023-05-19T01:41:10.310Z,96480.16
2023-05-19T01:42:13.260Z,96477.00
2023-05-19T01:43:21.770Z,96477.19
2023-05-19T01:44:24.111Z,96477.38
2023-05-19T01:45:28.715Z,96481.34
2023-05-19T01:46:30.289Z,96476.84
2023-05-19T01:47:35.033Z,96476.19
2023-05-19T01:48:37.060Z,96479.84
2023-05-19T01:49:38.603Z,96475.75
2023-05-19T01:50:41.591Z,96470.56
2023-05-19T01:51:43.675Z,96475.75
2023-05-19T01:52:45.230Z,96466.44
2023-05-19T01:53:47.098Z,96469.28
2023-05-19T01:54:49.222Z,96467.81
2023-05-19T01:55:53.513Z,96466.97
2023-05-19T01:57:06.511Z,96466.97
2023-05-19T01:58:19.589Z,96467.34
2023-05-19T01:59:51.850Z,96463.38
2023-05-19T02:01:12.485Z,96466.06
2023-05-19T02:03:00.824Z,96463.75
2023-05-19T02:04:13.345Z,96464.22
2023-05-19T02:05:36.231Z,96472.59
2023-05-19T02:07:13.492Z,96465.41
2023-05-19T02:08:24.119Z,96467.44
2023-05-19T02:09:48.392Z,96463.47
2023-05-19T02:10:56.470Z,96466.44
2023-05-19T02:12:04.816Z,96471.56
2023-05-19T02:13:08.623Z,96471.09
2023-05-19T02:14:23.189Z,96470.09
2023-05-19T02:15:28.814Z,96467.25
2023-05-19T02:16:30.634Z,96466.94
2023-05-19T02:17:36.170Z,96472.41
2023-05-19T02:18:38.088Z,96472.13
2023-05-19T02:19:43.401Z,96475.16
2023-05-19T02:20:44.960Z,96471.41
2023-05-19T02:21:46.450Z,96471.59
2023-05-19T02:22:49.002Z,96467.63
2023-05-19T02:23:50.940Z,96475.66
2023-05-19T02:24:56.478Z,96477.56
2023-05-19T02:25:58.066Z,96477.13
2023-05-19T02:27:00.772Z,96474.78
2023-05-19T02:28:02.342Z,96465.88
2023-05-19T02:29:04.406Z,96475.56
2023-05-19T02:30:08.157Z,96478.41
2023-05-19T02:31:11.504Z,96473.59
2023-05-19T02:32:13.641Z,96472.50
2023-05-19T02:33:15.323Z,96475.09
2023-05-19T02:34:17.975Z,96469.75
2023-05-19T02:35:20.089Z,96477.94
2023-05-19T02:36:21.605Z,96469.47
2023-05-19T02:37:28.363Z,96474.44
2023-05-19T02:38:29.917Z,96473.22
2023-05-19T02:39:35.433Z,96469.75
2023-05-19T02:40:37.326Z,96465.41
2023-05-19T02:41:39.423Z,96471.41
2023-05-19T02:42:41.146Z,96466.97
2023-05-19T02:43:42.863Z,96465.78
2023-05-19T02:44:45.016Z,96462.84
2023-05-19T02:45:46.999Z,96468.44
2023-05-19T02:46:48.569Z,96467.63
2023-05-19T02:47:50.281Z,96465.16
2023-05-19T02:48:52.707Z,96463.31
2023-05-19T02:49:54.732Z,96464.31
2023-05-19T02:50:57.094Z,96467.34
2023-05-19T02:51:58.606Z,96464.97
2023-05-19T02:53:00.739Z,96461.94
2023-05-19T02:54:02.599Z,96457.78
2023-05-19T02:55:04.621Z,96456.78
2023-05-19T02:56:06.421Z,96461.44
2023-05-19T02:57:07.993Z,96457.78
2023-05-19T02:58:09.594Z,96459.63
2023-05-19T02:59:11.109Z,96460.81
2023-05-19T03:00:13.147Z,96457.78
2023-05-19T03:01:15.112Z,96461.81
2023-05-19T03:02:16.741Z,96461.63
2023-05-19T03:03:18.427Z,96456.50
2023-05-19T03:04:20.129Z,96455.50
2023-05-19T03:05:21.768Z,96452.72
2023-05-19T03:06:23.503Z,96457.69
2023-05-19T03:07:25.392Z,96459.53
2023-05-19T03:08:27.438Z,96453.34
2023-05-19T03:09:29.124Z,96457.88
2023-05-19T03:10:31.073Z,96451.25
2023-05-19T03:11:32.674Z,96455.00
2023-05-19T03:12:34.280Z,96455.19
2023-05-19T03:13:36.134Z,96455.56
2023-05-19T03:14:38.537Z,96457.97
2023-05-19T03:15:40.148Z,96453.81
2023-05-19T03:16:42.303Z,96458.44
2023-05-19T03:17:44.257Z,96453.25
2023-05-19T03:18:46.236Z,96458.25
2023-05-19T03:19:48.106Z,96458.25
2023-05-19T03:20:50.092Z,96452.44
2023-05-19T03:21:51.711Z,96453.63
2023-05-19T03:22:53.336Z,96455.69
2023-05-19T03:23:54.882Z,96459.34
2023-05-19T03:24:58.451Z,96463.56
2023-05-19T03:26:00.097Z,96459.25
2023-05-19T03:27:02.577Z,96461.91
2023-05-19T03:28:04.266Z,96467.63
2023-05-19T03:29:05.918Z,96465.88
2023-05-19T03:30:10.749Z,96457.31
2023-05-19T03:31:26.695Z,96459.34
2023-05-19T03:32:28.353Z,96457.97
2023-05-19T03:33:30.457Z,96460.63
2023-05-19T03:34:32.650Z,96453.09
2023-05-19T03:35:34.229Z,96458.78
2023-05-19T03:36:41.462Z,96464.31
2023-05-19T03:37:48.146Z,96461.63
2023-05-19T03:38:49.812Z,96459.72
2023-05-19T03:39:51.410Z,96468.06
2023-05-19T03:40:53.685Z,96467.25
2023-05-19T03:41:56.309Z,96467.25
2023-05-19T03:42:57.872Z,96462.72
2023-05-19T03:43:59.437Z,96460.06
2023-05-19T03:45:01.142Z,96463.09
2023-05-19T03:46:02.800Z,96455.75
2023-05-19T03:47:24.077Z,96465.25
2023-05-19T03:48:37.420Z,96460.06
2023-05-19T03:49:50.891Z,96463.75
2023-05-19T03:51:18.350Z,96464.75
2023-05-19T03:52:21.714Z,96458.06
2023-05-19T03:53:39.749Z,96462.09
2023-05-19T03:54:42.680Z,96466.63
2023-05-19T03:55:44.803Z,96466.44
2023-05-19T03:56:48.313Z,96467.06
2023-05-19T03:57:49.797Z,96464.69
2023-05-19T03:58:51.359Z,96471.41
2023-05-19T03:59:53.210Z,96464.03
2023-05-19T04:00:56.390Z,96464.50
2023-05-19T04:01:58.269Z,96475.16
2023-05-19T04:03:01.122Z,96464.13
2023-05-19T04:04:03.294Z,96463.31
2023-05-19T04:05:05.181Z,96466.44
2023-05-19T04:06:07.281Z,96463.50
2023-05-19T04:07:08.769Z,96463.69
2023-05-19T04:08:10.733Z,96468.94
2023-05-19T04:09:14.587Z,96463.13
2023-05-19T04:10:16.100Z,96465.31
2023-05-19T04:11:19.919Z,96460.63
2023-05-19T04:12:21.647Z,96463.41
2023-05-19T04:13:23.255Z,96457.22
2023-05-19T04:14:24.890Z,96466.50
2023-05-19T04:15:26.731Z,96461.75
2023-05-19T04:16:28.368Z,96460.75
2023-05-19T04:17:30.050Z,96468.94
2023-05-19T04:18:31.815Z,96462.31
2023-05-19T04:19:33.700Z,96466.88
2023-05-19T04:20:36.578Z,96467.56
2023-05-19T04:21:38.172Z,96469.84
2023-05-19T04:22:39.718Z,96469.66
2023-05-19T04:23:41.654Z,96468.66
2023-05-19T04:24:43.254Z,96471.31
2023-05-19T04:25:45.479Z,96470.13
2023-05-19T04:26:47.412Z,96471.56
2023-05-19T04:27:50.921Z,96472.44
2023-05-19T04:28:54.212Z,96470.84
2023-05-19T04:29:56.098Z,96473.44
2023-05-19T04:30:58.653Z,96471.38
2023-05-19T04:32:00.985Z,96468.38
2023-05-19T04:33:03.937Z,96477.47
2023-05-19T04:34:05.918Z,96468.09
2023-05-19T04:35:07.821Z,96467.31
2023-05-19T04:36:10.671Z,96470.28
2023-05-19T04:37:16.559Z,96472.38
2023-05-19T04:38:19.942Z,96473.56
2023-05-19T04:39:23.068Z,96468.22
2023-05-19T04:40:26.016Z,96468.31
2023-05-19T04:41:28.058Z,96470.44
2023-05-19T04:42:30.710Z,96469.03
2023-05-19T04:43:34.265Z,96475.66
2023-05-19T04:44:38.002Z,96467.69
2023-05-19T04:45:42.469Z,96470.13
2023-05-19T04:46:46.067Z,96467.06
2023-05-19T04:47:48.333Z,96469.56
2023-05-19T04:48:50.437Z,96467.53
2023-05-19T04:49:55.756Z,96470.25
2023-05-19T04:50:57.799Z,96471.53
2023-05-19T04:51:59.314Z,96470.72
2023-05-19T04:53:04.111Z,96470.34
2023-05-19T04:54:06.295Z,96472.06
2023-05-19T04:55:08.675Z,96467.53
2023-05-19T04:56:13.800Z,96467.88
2023-05-19T04:57:15.376Z,96466.88
2023-05-19T04:58:17.151Z,96467.28
2023-05-19T04:59:19.029Z,96467.38
2023-05-19T05:00:21.368Z,96460.72
2023-05-19T05:01:33.878Z,96459.16
2023-05-19T05:02:37.089Z,96461.97
2023-05-19T05:03:38.936Z,96466.84
2023-05-19T05:04:43.790Z,96467.09
2023-05-19T05:05:45.558Z,96467.13
2023-05-19T05:06:49.009Z,96465.91
2023-05-19T05:07:51.468Z,96463.84
2023-05-19T05:08:53.046Z,96467.19
2023-05-19T05:09:55.086Z,96465.97
2023-05-19T05:10:57.349Z,96471.06
2023-05-19T05:11:59.333Z,96467.19
2023-05-19T05:13:01.845Z,96469.53
2023-05-19T05:14:04.728Z,96465.97
2023-05-19T05:15:08.366Z,96467.63
2023-05-19T05:16:10.982Z,96468.69
2023-05-19T05:17:14.125Z,96467.13
2023-05-19T05:18:17.010Z,96470.03
2023-05-19T05:19:19.356Z,96476.28
2023-05-19T05:20:21.610Z,96472.81
2023-05-19T05:21:24.193Z,96472.63
2023-05-19T05:22:26.040Z,96475.09
2023-05-19T05:23:28.746Z,96477.38
2023-05-19T05:24:31.941Z,96475.03
2023-05-19T05:25:36.291Z,96474.09
2023-05-19T05:26:38.503Z,96475.53
2023-05-19T05:27:40.710Z,96471.47
2023-05-19T05:28:43.403Z,96477.66
2023-05-19T05:29:45.745Z,96474.28
2023-05-19T05:30:48.946Z,96470.16
2023-05-19T05:31:50.604Z,96474.75
2023-05-19T05:32:52.487Z,96474.41
2023-05-19T05:34:05.518Z,96477.97
2023-05-19T05:35:08.181Z,96472.00
2023-05-19T05:36:09.915Z,96480.50
2023-05-19T05:37:13.183Z,96475.72
2023-05-19T05:38:16.303Z,96478.63
2023-05-19T05:39:18.171Z,96477.59
2023-05-19T05:40:20.935Z,96474.91
2023-05-19T05:41:22.672Z,96469.56
2023-05-19T05:42:28.938Z,96468.50
2023-05-19T05:43:31.412Z,96478.16
2023-05-19T05:44:36.176Z,96474.81
2023-05-19T05:45:39.261Z,96471.53
2023-05-19T05:46:41.578Z,96475.09
2023-05-19T05:47:44.147Z,96476.59
2023-05-19T05:48:46.282Z,96479.81
2023-05-19T05:49:48.664Z,96486.59
2023-05-19T05:50:52.243Z,96484.59
2023-05-19T05:52:05.672Z,96476.66
2023-05-19T05:53:19.418Z,96482.13
2023-05-19T05:54:23.456Z,96480.38
2023-05-19T05:55:26.629Z,96483.59
2023-05-19T05:56:28.571Z,96474.69
2023-05-19T05:57:35.588Z,96479.03
2023-05-19T05:58:37.863Z,96480.31
2023-05-19T05:59:40.694Z,96479.09
2023-05-19T06:00:43.537Z,96478.28
2023-05-19T06:01:45.353Z,96483.53
2023-05-19T06:02:49.528Z,96479.38
2023-05-19T06:03:52.451Z,96475.94
2023-05-19T06:04:57.641Z,96484.25
2023-05-19T06:05:59.427Z,96474.50
2023-05-19T06:07:01.851Z,96477.25
2023-05-19T06:08:07.586Z,96481.16
2023-05-19T06:09:10.140Z,96481.72
2023-05-19T06:10:11.985Z,96489.31
2023-05-19T06:11:13.594Z,96478.38
2023-05-19T06:12:16.292Z,96487.47
2023-05-19T06:13:24.252Z,96479.28
2023-05-19T06:14:26.054Z,96479.31
2023-05-19T06:15:45.745Z,96484.59
2023-05-19T06:16:54.993Z,96480.47
2023-05-19T06:17:56.615Z,96477.03
2023-05-19T06:18:58.871Z,96477.69
2023-05-19T06:20:00.745Z,96473.38
2023-05-19T06:21:03.427Z,96469.06
2023-05-19T06:22:05.514Z,96469.97
2023-05-19T06:23:08.491Z,96466.59
2023-05-19T06:24:10.744Z,96467.81
2023-05-19T06:25:12.495Z,96463.38
2023-05-19T06:26:15.205Z,96477.66
2023-05-19T06:27:16.753Z,96470.16
2023-05-19T06:28:18.366Z,96471.78
2023-05-19T06:29:19.993Z,96470.72
2023-05-19T06:30:22.616Z,96473.06
2023-05-19T06:31:34.030Z,96471.00
2023-05-19T06:32:46.159Z,96471.03
2023-05-19T06:33:47.780Z,96476.09
2023-05-19T06:34:54.218Z,96472.16
2023-05-19T06:35:55.858Z,96470.31
2023-05-19T06:36:57.612Z,96462.22
2023-05-19T06:37:59.923Z,96466.72
2023-05-19T06:39:02.722Z,96465.53
2023-05-19T06:40:07.086Z,96468.25
2023-05-19T06:41:09.013Z,96471.09
2023-05-19T06:42:10.978Z,96468.56
2023-05-19T06:43:31.906Z,96463.97
2023-05-19T06:44:37.570Z,96466.47
2023-05-19T06:45:43.891Z,96464.56
2023-05-19T06:46:46.486Z,96470.56
2023-05-19T06:47:48.842Z,96469.38
2023-05-19T06:48:51.232Z,96466.41
2023-05-19T06:49:57.070Z,96462.16
2023-05-19T06:51:02.182Z,96464.72
2023-05-19T06:52:07.905Z,96465.38
2023-05-19T06:53:09.660Z,96461.31
2023-05-19T06:54:13.012Z,96466.59
2023-05-19T06:55:16.874Z,96468.06
2023-05-19T06:56:19.070Z,96466.38
2023-05-19T06:57:21.608Z,96462.00
2023-05-19T06:58:23.298Z,96461.25
2023-05-19T06:59:25.037Z,96461.91
2023-05-19T07:00:26.615Z,96469.88
2023-05-19T07:01:30.376Z,96469.66
2023-05-19T07:02:33.366Z,96462.66
2023-05-19T07:03:35.113Z,96466.19
2023-05-19T07:04:37.055Z,96473.69
2023-05-19T07:05:38.653Z,96474.06
2023-05-19T07:06:40.180Z,96469.56
2023-05-19T07:07:42.029Z,96473.63
2023-05-19T07:08:47.668Z,96478.75
2023-05-19T07:09:49.668Z,96471.00
2023-05-19T07:10:52.469Z,96474.47
2023-05-19T07:11:54.027Z,96471.59
2023-05-19T07:12:56.004Z,96467.94
2023-05-19T07:14:00.130Z,96473.22
2023-05-19T07:15:05.973Z,96469.44
2023-05-19T07:16:07.858Z,96473.94
2023-05-19T07:17:09.640Z,96473.34
2023-05-19T07:18:13.512Z,96470.97
2023-05-19T07:19:15.236Z,96462.91
2023-05-19T07:20:20.876Z,96471.94
2023-05-19T07:21:23.038Z,96468.28
2023-05-19T07:22:25.440Z,96468.69
2023-05-19T07:23:27.024Z,96455.44
2023-05-19T07:24:28.534Z,96463.63
2023-05-19T07:25:30.542Z,96467.69
2023-05-19T07:26:32.241Z,96466.34
2023-05-19T07:27:33.928Z,96462.25
2023-05-19T07:28:35.629Z,96464.75
2023-05-19T07:29:37.134Z,96467.13
2023-05-19T07:30:39.005Z,96465.41
2023-05-19T07:31:40.990Z,96461.66
2023-05-19T07:32:42.581Z,96467.16
2023-05-19T07:33:44.151Z,96465.84
2023-05-19T07:34:45.867Z,96458.88
2023-05-19T07:35:47.854Z,96461.41
2023-05-19T07:36:49.753Z,96464.72
2023-05-19T07:37:52.513Z,96461.94
2023-05-19T07:38:54.147Z,96462.47
2023-05-19T07:39:55.868Z,96457.31
2023-05-19T07:40:57.392Z,96460.63
2023-05-19T07:41:59.314Z,96463.38
2023-05-19T07:43:00.856Z,96460.91
2023-05-19T07:44:07.462Z,96459.66
2023-05-19T07:45:09.472Z,96465.94
2023-05-19T07:46:11.075Z,96460.91
2023-05-19T07:47:12.652Z,96470.22
2023-05-19T07:48:14.402Z,96469.00
2023-05-19T07:49:16.494Z,96474.59
2023-05-19T07:50:18.185Z,96463.09
2023-05-19T07:51:19.798Z,96466.34
2023-05-19T07:52:21.343Z,96474.38
2023-05-19T07:53:23.062Z,96465.00
2023-05-19T07:54:24.676Z,96468.91
2023-05-19T07:55:26.391Z,96463.53
2023-05-19T07:56:27.961Z,96462.84
2023-05-19T07:57:29.519Z,96458.41
2023-05-19T07:58:31.280Z,96461.06
2023-05-19T07:59:32.900Z,96461.59
2023-05-19T08:00:34.560Z,96461.84
2023-05-19T08:01:36.352Z,96458.97
2023-05-19T08:02:37.893Z,96458.97
2023-05-19T08:03:39.561Z,96449.97
2023-05-19T08:04:41.557Z,96454.25
2023-05-19T08:05:43.331Z,96448.56
2023-05-19T08:06:44.835Z,96451.06
2023-05-19T08:07:46.378Z,96449.69
2023-05-19T08:08:48.077Z,96451.97
2023-05-19T08:09:49.633Z,96449.75
2023-05-19T08:10:51.325Z,96453.09
2023-05-19T08:11:52.955Z,96457.88
2023-05-19T08:12:54.606Z,96452.59
2023-05-19T08:13:56.132Z,96454.44
2023-05-19T08:14:58.949Z,96456.91
2023-05-19T08:16:02.954Z,96452.44
2023-05-19T08:17:05.022Z,96452.91
2023-05-19T08:18:06.698Z,96457.91
2023-05-19T08:19:09.228Z,96449.25
2023-05-19T08:20:12.372Z,96451.25
2023-05-19T08:21:13.923Z,96446.63
2023-05-19T08:22:15.725Z,96442.09
2023-05-19T08:23:17.598Z,96454.88
2023-05-19T08:24:19.151Z,96446.59
2023-05-19T08:25:20.774Z,96443.47
2023-05-19T08:26:22.812Z,96444.28
2023-05-19T08:27:24.344Z,96446.81
2023-05-19T08:28:26.165Z,96444.66
2023-05-19T08:29:27.954Z,96448.25
2023-05-19T08:30:29.545Z,96450.72
2023-05-19T08:31:31.520Z,96447.03
2023-05-19T08:32:33.209Z,96435.13
2023-05-19T08:33:34.857Z,96446.69
2023-05-19T08:34:36.393Z,96442.91
2023-05-19T08:35:37.960Z,96437.56
2023-05-19T08:36:40.825Z,96441.88
2023-05-19T08:37:42.838Z,96439.13
2023-05-19T08:38:44.501Z,96443.41
2023-05-19T08:39:46.106Z,96438.78
2023-05-19T08:40:48.431Z,96436.19
2023-05-19T08:41:50.133Z,96429.97
2023-05-19T08:42:51.677Z,96425.63
2023-05-19T08:43:53.260Z,96437.72
2023-05-19T08:44:54.811Z,96433.34
2023-05-19T08:45:57.371Z,96440.78
2023-05-19T08:47:02.689Z,96430.34
2023-05-19T08:48:04.584Z,96435.81
2023-05-19T08:49:12.189Z,96437.53
2023-05-19T08:50:17.646Z,96435.38
2023-05-19T08:51:42.798Z,96433.97
2023-05-19T08:52:53.443Z,96437.75
2023-05-19T08:54:03.456Z,96439.16
2023-05-19T08:55:09.822Z,96438.59
2023-05-19T08:56:15.081Z,96431.53
2023-05-19T08:57:17.232Z,96436.50
2023-05-19T08:58:20.757Z,96440.91
2023-05-19T08:59:22.887Z,96434.91
2023-05-19T09:00:25.737Z,96433.19
2023-05-19T09:01:29.200Z,96432.69
2023-05-19T09:02:31.185Z,96431.19
2023-05-19T09:03:38.090Z,96425.81
2023-05-19T09:04:41.595Z,96433.00
2023-05-19T09:05:43.510Z,96436.41
2023-05-19T09:06:45.460Z,96435.31
2023-05-19T09:07:48.267Z,96433.78
2023-05-19T09:08:50.130Z,96431.91
2023-05-19T09:09:51.811Z,96427.06
2023-05-19T09:10:53.358Z,96427.66
2023-05-19T09:11:54.949Z,96423.91
2023-05-19T09:12:56.917Z,96430.50
2023-05-19T09:13:58.516Z,96429.97
2023-05-19T09:15:01.107Z,96426.69
2023-05-19T09:16:03.506Z,96431.38
2023-05-19T09:17:06.015Z,96431.09
2023-05-19T09:18:15.189Z,96433.25
2023-05-19T09:19:17.039Z,96433.66
2023-05-19T09:20:18.632Z,96427.50
2023-05-19T09:21:20.382Z,96429.88
2023-05-19T09:22:22.277Z,96430.78
2023-05-19T09:23:24.913Z,96430.63
2023-05-19T09:24:27.068Z,96426.69
2023-05-19T09:25:28.674Z,96428.78
2023-05-19T09:26:41.978Z,96433.66
2023-05-19T09:27:43.477Z,96431.53
2023-05-19T09:28:47.765Z,96428.78
2023-05-19T09:29:50.855Z,96430.41
2023-05-19T09:31:06.492Z,96426.97
2023-05-19T09:32:08.200Z,96431.66
2023-05-19T09:33:10.118Z,96432.25
2023-05-19T09:34:13.004Z,96429.19
2023-05-19T09:35:17.253Z,96429.88
2023-05-19T09:36:18.757Z,96426.56
2023-05-19T09:37:24.072Z,96429.78
2023-05-19T09:38:26.978Z,96428.81
2023-05-19T09:39:28.884Z,96434.09
2023-05-19T09:40:32.174Z,96434.97
2023-05-19T09:41:33.713Z,96428.03
2023-05-19T09:42:38.509Z,96426.50
2023-05-19T09:43:40.029Z,96421.75
2023-05-19T09:44:41.504Z,96421.22
2023-05-19T09:45:43.318Z,96419.78
2023-05-19T09:46:49.539Z,96421.81
2023-05-19T09:47:51.462Z,96427.34
2023-05-19T09:48:57.413Z,96428.09
2023-05-19T09:49:58.902Z,96417.47
2023-05-19T09:51:01.486Z,96419.06
2023-05-19T09:52:04.026Z,96417.69
2023-05-19T09:53:05.929Z,96417.41
2023-05-19T09:54:10.059Z,96420.06
2023-05-19T09:55:13.429Z,96422.09
2023-05-19T09:56:15.225Z,96429.13
2023-05-19T09:57:16.998Z,96421.72
2023-05-19T09:58:19.048Z,96427.38
2023-05-19T09:59:24.434Z,96421.34
2023-05-19T10:00:27.402Z,96425.47
2023-05-19T10:01:31.438Z,96420.97
2023-05-19T10:02:33.325Z,96420.53
2023-05-19T10:03:35.143Z,96422.81
2023-05-19T10:04:37.178Z,96423.03
2023-05-19T10:05:41.434Z,96418.69
2023-05-19T10:06:44.142Z,96430.84
2023-05-19T10:07:53.167Z,96421.94
2023-05-19T10:08:55.084Z,96434.31
2023-05-19T10:09:58.675Z,96427.44
2023-05-19T10:11:00.658Z,96424.28
2023-05-19T10:12:03.292Z,96424.28
2023-05-19T10:13:06.325Z,96425.50
2023-05-19T10:14:08.517Z,96426.00
2023-05-19T10:15:11.912Z,96425.19
2023-05-19T10:16:16.104Z,96439.44
2023-05-19T10:17:18.061Z,96434.13
2023-05-19T10:18:20.838Z,96435.13
2023-05-19T10:19:26.992Z,96428.53
2023-05-19T10:20:28.717Z,96436.75
2023-05-19T10:21:30.818Z,96432.81
2023-05-19T10:22:33.661Z,96430.50
2023-05-19T10:23:35.522Z,96432.13
2023-05-19T10:24:37.056Z,96428.63
2023-05-19T10:25:39.689Z,96430.63
2023-05-19T10:26:45.443Z,96428.66
2023-05-19T10:27:59.711Z,96425.06
2023-05-19T10:29:03.330Z,96425.88
2023-05-19T10:30:13.714Z,96430.59
2023-05-19T10:31:20.453Z,96421.81
2023-05-19T10:32:26.823Z,96424.22
2023-05-19T10:33:55.829Z,96430.09
2023-05-19T10:35:14.404Z,96422.44
2023-05-19T10:36:33.309Z,96417.56
2023-05-19T10:37:45.569Z,96417.19
2023-05-19T10:39:19.327Z,96425.66
2023-05-19T10:40:30.224Z,96420.63
2023-05-19T10:41:37.880Z,96420.31
2023-05-19T10:42:51.823Z,96420.06
2023-05-19T10:44:07.756Z,96415.53
2023-05-19T10:45:21.771Z,96423.72
2023-05-19T10:46:25.612Z,96419.22
2023-05-19T10:47:27.661Z,96416.91
2023-05-19T10:48:34.476Z,96417.13
2023-05-19T10:49:36.843Z,96417.53
2023-05-19T10:50:38.787Z,96424.28
2023-05-19T10:51:40.442Z,96426.34
2023-05-19T10:52:41.978Z,96425.34
2023-05-19T10:53:46.280Z,96420.69
2023-05-19T10:54:47.901Z,96417.06
2023-05-19T10:55:56.136Z,96419.53
2023-05-19T10:56:57.935Z,96415.97
2023-05-19T10:58:00.477Z,96412.03
2023-05-19T10:59:03.466Z,96424.19
2023-05-19T11:00:28.749Z,96423.00
2023-05-19T11:01:35.240Z,96425.84
2023-05-19T11:02:44.958Z,96428.66
2023-05-19T11:03:52.267Z,96423.75
2023-05-19T11:04:56.316Z,96423.19
2023-05-19T11:06:21.616Z,96425.50
2023-05-19T11:07:24.735Z,96416.09
2023-05-19T11:08:33.667Z,96417.81
2023-05-19T11:09:40.848Z,96422.00
2023-05-19T11:10:46.233Z,96429.69
2023-05-19T11:11:53.091Z,96418.31
2023-05-19T11:14:00.127Z,96424.72
2023-05-19T11:15:03.198Z,96424.84
2023-05-19T11:16:09.219Z,96422.84
2023-05-19T11:17:15.985Z,96425.94
2023-05-19T11:18:19.265Z,96419.97
2023-05-19T11:19:36.922Z,96422.03
2023-05-19T11:20:39.195Z,96426.78
2023-05-19T11:21:52.455Z,96418.19
2023-05-19T11:23:10.126Z,96431.66
2023-05-19T11:24:44.573Z,96422.31
2023-05-19T11:25:51.397Z,96420.16
2023-05-19T11:26:54.717Z,96427.47
2023-05-19T11:27:56.840Z,96421.06
2023-05-19T11:28:58.387Z,96415.16
2023-05-19T11:30:02.215Z,96419.69
2023-05-19T11:31:08.092Z,96417.84
2023-05-19T11:32:11.202Z,96418.72
2023-05-19T11:33:13.890Z,96408.63
2023-05-19T11:34:16.200Z,96419.22
2023-05-19T11:35:19.077Z,96414.75
2023-05-19T11:36:21.723Z,96423.34
2023-05-19T11:37:23.471Z,96421.94
2023-05-19T11:38:26.347Z,96421.94
2023-05-19T11:39:28.920Z,96414.53
2023-05-19T11:40:30.800Z,96411.44
2023-05-19T11:41:32.342Z,96412.59
2023-05-19T11:42:37.341Z,96417.84
2023-05-19T11:43:39.218Z,96414.91
2023-05-19T11:44:41.595Z,96407.19
2023-05-19T11:45:43.176Z,96416.41
2023-05-19T11:46:45.856Z,96411.13
2023-05-19T11:48:01.194Z,96410.06
2023-05-19T11:49:05.287Z,96417.22
2023-05-19T11:50:07.659Z,96416.03
2023-05-19T11:51:09.301Z,96409.94
2023-05-19T11:52:11.362Z,96412.53
2023-05-19T11:53:14.095Z,96413.34
2023-05-19T11:54:15.969Z,96411.78
2023-05-19T11:55:22.307Z,96410.06
2023-05-19T11:56:23.951Z,96410.06
2023-05-19T11:57:25.514Z,96410.63
2023-05-19T11:58:28.163Z,96410.72
2023-05-19T11:59:35.756Z,96405.34
2023-05-19T12:00:40.385Z,96407.88
2023-05-19T12:01:42.536Z,96413.34
2023-05-19T12:02:44.096Z,96404.59
2023-05-19T12:03:46.548Z,96406.41
2023-05-19T12:04:49.465Z,96408.84
2023-05-19T12:05:51.181Z,96411.69
2023-05-19T12:06:52.895Z,96409.59
2023-05-19T12:07:54.811Z,96410.84
2023-05-19T12:08:56.654Z,96403.03
2023-05-19T12:10:00.032Z,96411.41
2023-05-19T12:11:01.722Z,96414.00
2023-05-19T12:12:04.429Z,96404.50
2023-05-19T12:13:09.028Z,96411.53
2023-05-19T12:14:11.950Z,96406.94
2023-05-19T12:15:14.492Z,96411.06
2023-05-19T12:16:16.121Z,96410.72
2023-05-19T12:17:20.566Z,96413.81
2023-05-19T12:18:22.224Z,96409.44
2023-05-19T12:19:26.222Z,96412.56
2023-05-19T12:20:32.313Z,96410.81
2023-05-19T12:21:34.641Z,96412.47
2023-05-19T12:22:36.898Z,96411.53
2023-05-19T12:23:38.935Z,96415.16
2023-05-19T12:24:42.048Z,96415.66
2023-05-19T12:25:44.004Z,96413.94
2023-05-19T12:26:45.542Z,96413.84
2023-05-19T12:27:49.432Z,96408.84
2023-05-19T12:28:52.651Z,96411.84
2023-05-19T12:29:56.099Z,96411.91
2023-05-19T12:30:58.445Z,96413.09
2023-05-19T12:32:01.326Z,96410.88
2023-05-19T12:33:03.433Z,96413.56